AirNav   Everest Fuels
 
 1549 users online  

FL13 Spencer's Airpark
Middleburg, Florida, USA

GOING TO MIDDLEBURG?


FAA INFORMATION EFFECTIVE 16 JUNE 2022

Location

FAA Identifier: FL13
Lat/Long: 30-04-06.8630N 081-57-38.3740W
30-04.114383N 081-57.639567W
30.0685731,-81.9606594
(estimated)
Elevation: 150 ft. / 46 m (estimated)
Variation: 03W (1985)
From city: 5 miles W of MIDDLEBURG, FL
Time zone: UTC -4 (UTC -5 during Standard Time)
Zip code: 32068

Airport Operations

Airport use: Private use. Permission required prior to landing
Activation date: 03/1976
Control tower: no
ARTCC: JACKSONVILLE CENTER
FSS: GAINESVILLE FLIGHT SERVICE STATION
Attendance: UNATNDD
Wind indicator: yes
Segmented circle: no

Airport Communications

WX AWOS-3 at VQQ (10 nm NE): 125.275 (904-778-6934)
WX AWOS-3 at 42J (14 nm S): 124.275 (352-473-8273)
WX AWOS-3 at HEG (15 nm NE): 119.275 (904-695-0334)
WX AWOS-3 at NIP (18 nm NE): 119.275

Airport Services

Runway Information

Runway 9/27

Dimensions: 2800 x 75 ft. / 853 x 23 m
Surface: turf
RUNWAY 9  RUNWAY 27
Traffic pattern: leftleft
Obstructions: treestrees

Airport Ownership and Management from official FAA records

Ownership: Privately-owned
Owner: PHILLIP SPENCER, JR.
642 NELSON DRIVE SOUTH
ORANGE PARK, FL 32073
Manager: PHILLIP SPENCER, JR.
642 NELSON DRIVE SOUTH
ORANGE PARK, FL 32073
Phone 904-264-6813

Airport Operational Statistics

Aircraft based on the field: 2
Single engine airplanes: 2
    

Additional Remarks

FOR CD CTC JACKSONVILLE APCH AT 904-741-0284.

Instrument Procedures

There are no published instrument procedures at FL13.

Some nearby airports with instrument procedures:

KVQQ - Cecil Airport (10 nm NE)
42J - Keystone Heights Airport (14 nm S)
KHEG - Herlong Recreational Airport (15 nm NE)
KNIP - Jacksonville Naval Air Station (Towers Field) (18 nm NE)
KGNV - Gainesville Regional Airport (28 nm SW)
 
Loc | Ops | Rwys | IFR | FBO | Links
Com | Nav | Svcs | Stats | Notes
Area around FL13 (Spencer's Airpark)
 
Road maps at: MapQuest Bing Google
 
Aerial photo
No photo
 
Sectional chart

 
Airport distance calculator
Flying to Spencer's Airpark? Find the distance to fly.

From to FL13

Sunrise and sunset
Times for 01-Jul-2022
 Local
(UTC-4)
 Zulu
(UTC)
Morning civil twilight06:0410:04
Sunrise06:3110:31
Sunset20:3200:32
Evening civil twilight21:0001:00

Current date and time
Zulu (UTC)  01-Jul-2022 18:12:56
Local (UTC-4)  01-Jul-2022 14:12:56
 
METAR
KVQQ 
10nm NE 
011750Z VRB05KT 10SM BKN045 35/23 A3004
K42J 
14nm S 
011755Z AUTO 24009KT 9SM CLR 29/24 A3007 RMK A01
KHEG 
15nm NE 
011755Z AUTO 00000KT 10SM CLR 33/22 A3006 RMK AO2 LTG DSNT SE AND SW
KNIP 
18nm NE 
011753Z 04010KT 9SM -RA SCT040 BKN120 BKN250 31/24 A3005 RMK AO2 RAB51 SLP173 T1 SET P0000 60000 T03060239 10328 20256 58017
TAF
KVQQ 
10nm NE 
011124Z 0112/0212 VRB03KT P6SM FEW005 SCT020 BKN250 FM011500 23005KT P6SM VCSH SCT035 OVC100 FM011800 17007KT 6SM SHRA VCTS SCT030CB BKN050 TEMPO 0118/0122 3SM TSRA BKN030CB FM020100 16006KT P6SM VCSH SCT025 BKN035 BKN080
KNIP 
18nm NE 
0108/0207 21007KT 9999 SCT030 BKN0100 BKN250 QNH3002INS FM011700 13010KT 9999 VCSH SCT025 BKN080 BKN250 QNH2999INS TEMPO 0119/0200 VRB15G25KT 4800 TSRA BR SCT015 BKN025CB BKN050 BKN100 BKN250 FM020200 20007KT 9999 VCSH FEW015 SCT035 BKN150 BKN250 QNH2998INS T25/0111Z T32/0118Z AMD 0810 FN20077
NOTAMs
Click for the latest NOTAMs
NOTAMs are issued by the DoD/FAA and will open in a separate window not controlled by AirNav.

 

 
 

Would you like to see your business listed on this page?

 If your business provides an interesting product or service to pilots, flight crews, aircraft, or users of the Spencer's Airpark, you should consider listing it here.  To start the listing process, click on the button below
 
Add a business
 

Other Pages about Spencer's Airpark

Update a link
 
Copyright © AirNav, LLC. All rights reserved. Privacy Policy  Contact